CEB326 RPLL-RPVK
Flight info
| Callsign | CEB326 |
|---|---|
| Flight time | N/A |
| Altitude | 25000 |
| Route | RDVXVERDE/06 VERDE W24 TAPER TAPER1R |
| Aircraft | A320/M-SDE3FGHIRWY/LB1 |
Departure
| Time | N/A |
|---|---|
| Airport | Ninoy Aquino International Airport (RPLL) |
Arrival
| Time | 2026-04-25 13:45 |
|---|---|
| Airport | Kalibo International Airport (RPVK) |
| Time | Latitude | Longitude | Altitude | Speed | Heading |
|---|---|---|---|---|---|
| 2026-04-25 13:03 | 14.23348 | 121.30770 | 11039 ft | 353 kts | 147° |
| 2026-04-25 13:03 | 14.21289 | 121.32146 | 11039 ft | 353 kts | 147° |
| 2026-04-25 13:04 | 14.19228 | 121.33523 | 11046 ft | 353 kts | 147° |
| 2026-04-25 13:04 | 14.17168 | 121.34899 | 11047 ft | 353 kts | 147° |
| 2026-04-25 13:04 | 14.15112 | 121.36273 | 11044 ft | 353 kts | 147° |
| 2026-04-25 13:04 | 14.13054 | 121.37647 | 11046 ft | 353 kts | 147° |
| 2026-04-25 13:05 | 14.10995 | 121.39023 | 11041 ft | 352 kts | 147° |
| 2026-04-25 13:05 | 14.08937 | 121.40393 | 11041 ft | 352 kts | 148° |
| 2026-04-25 13:05 | 14.06676 | 121.41399 | 11430 ft | 358 kts | 167° |
| 2026-04-25 13:05 | 14.04204 | 121.41615 | 12202 ft | 358 kts | 185° |
| 2026-04-25 13:06 | 14.01794 | 121.40977 | 12900 ft | 360 kts | 206° |
| 2026-04-25 13:06 | 13.99675 | 121.39596 | 13574 ft | 363 kts | 216° |
| 2026-04-25 13:06 | 13.97622 | 121.38074 | 14196 ft | 366 kts | 216° |
| 2026-04-25 13:06 | 13.95555 | 121.36531 | 14788 ft | 369 kts | 216° |
| 2026-04-25 13:07 | 13.93465 | 121.34971 | 15382 ft | 372 kts | 216° |
| 2026-04-25 13:07 | 13.91363 | 121.33405 | 15964 ft | 374 kts | 216° |
| 2026-04-25 13:07 | 13.89240 | 121.31833 | 16528 ft | 377 kts | 216° |
| 2026-04-25 13:07 | 13.87095 | 121.30254 | 17103 ft | 380 kts | 216° |
| 2026-04-25 13:08 | 13.84937 | 121.28664 | 17658 ft | 383 kts | 216° |
| 2026-04-25 13:08 | 13.82757 | 121.27057 | 17917 ft | 386 kts | 216° |
| 2026-04-25 13:08 | 13.80605 | 121.25468 | 17963 ft | 386 kts | 216° |
| 2026-04-25 13:08 | 13.78397 | 121.23836 | 17969 ft | 385 kts | 216° |
| 2026-04-25 13:09 | 13.76250 | 121.22252 | 17974 ft | 385 kts | 216° |
| 2026-04-25 13:09 | 13.74072 | 121.20645 | 17971 ft | 385 kts | 216° |
| 2026-04-25 13:09 | 13.71883 | 121.19033 | 18339 ft | 389 kts | 216° |
| 2026-04-25 13:09 | 13.69679 | 121.17409 | 18850 ft | 391 kts | 216° |
| 2026-04-25 13:10 | 13.67465 | 121.15778 | 19349 ft | 393 kts | 216° |
| 2026-04-25 13:10 | 13.65238 | 121.14137 | 19788 ft | 395 kts | 216° |
| 2026-04-25 13:10 | 13.63006 | 121.12492 | 19934 ft | 395 kts | 216° |
| 2026-04-25 13:10 | 13.60773 | 121.10848 | 19974 ft | 394 kts | 216° |
| 2026-04-25 13:11 | 13.58544 | 121.09208 | 19977 ft | 394 kts | 216° |
| 2026-04-25 13:11 | 13.56311 | 121.07570 | 19978 ft | 394 kts | 214° |
| 2026-04-25 13:11 | 13.53883 | 121.06285 | 20060 ft | 396 kts | 199° |
| 2026-04-25 13:11 | 13.51175 | 121.05745 | 20518 ft | 400 kts | 183° |
| 2026-04-25 13:12 | 13.48403 | 121.06041 | 20977 ft | 404 kts | 165° |
| 2026-04-25 13:12 | 13.45836 | 121.07237 | 21408 ft | 409 kts | 148° |
| 2026-04-25 13:12 | 13.43462 | 121.08870 | 21850 ft | 412 kts | 147° |
| 2026-04-25 13:12 | 13.41889 | 121.09971 | 22143 ft | 414 kts | 147° |
| 2026-04-25 13:13 | 13.38699 | 121.12212 | 22734 ft | 417 kts | 147° |
| 2026-04-25 13:13 | 13.36293 | 121.13898 | 23153 ft | 420 kts | 147° |
| 2026-04-25 13:13 | 13.33870 | 121.15589 | 23569 ft | 422 kts | 147° |
| 2026-04-25 13:13 | 13.31433 | 121.17284 | 23913 ft | 424 kts | 147° |
| 2026-04-25 13:14 | 13.28980 | 121.18987 | 24251 ft | 427 kts | 148° |
| 2026-04-25 13:14 | 13.26512 | 121.20698 | 24585 ft | 429 kts | 148° |
| 2026-04-25 13:14 | 13.24061 | 121.22393 | 24880 ft | 432 kts | 148° |
| 2026-04-25 13:14 | 13.21571 | 121.24117 | 24965 ft | 430 kts | 148° |
| 2026-04-25 13:15 | 13.19068 | 121.25849 | 24986 ft | 427 kts | 148° |
| 2026-04-25 13:15 | 13.16607 | 121.27553 | 24990 ft | 426 kts | 148° |
| 2026-04-25 13:15 | 13.14187 | 121.29228 | 24990 ft | 425 kts | 148° |
| 2026-04-25 13:15 | 13.11739 | 121.30924 | 24993 ft | 425 kts | 148° |
| 2026-04-25 13:16 | 13.09289 | 121.32623 | 24991 ft | 425 kts | 147° |
| 2026-04-25 13:16 | 13.06837 | 121.34321 | 24991 ft | 425 kts | 148° |
| 2026-04-25 13:16 | 13.04383 | 121.36014 | 24987 ft | 425 kts | 148° |
| 2026-04-25 13:16 | 13.01927 | 121.37708 | 24986 ft | 425 kts | 148° |
| 2026-04-25 13:17 | 12.99477 | 121.39402 | 24984 ft | 425 kts | 147° |
| 2026-04-25 13:17 | 12.97028 | 121.41098 | 24982 ft | 425 kts | 147° |
| 2026-04-25 13:17 | 12.94579 | 121.42792 | 24978 ft | 424 kts | 147° |
| 2026-04-25 13:17 | 12.92131 | 121.44483 | 24974 ft | 424 kts | 148° |
| 2026-04-25 13:18 | 12.89681 | 121.46172 | 24970 ft | 424 kts | 148° |
| 2026-04-25 13:18 | 12.88061 | 121.47289 | 24966 ft | 424 kts | 148° |
| 2026-04-25 13:18 | 12.84786 | 121.49550 | 24963 ft | 424 kts | 147° |
| 2026-04-25 13:18 | 12.82341 | 121.51241 | 24960 ft | 424 kts | 147° |
| 2026-04-25 13:19 | 12.79895 | 121.52933 | 24959 ft | 424 kts | 147° |
| 2026-04-25 13:19 | 12.77447 | 121.54622 | 24947 ft | 422 kts | 147° |
| 2026-04-25 13:19 | 12.75031 | 121.56288 | 24565 ft | 416 kts | 147° |
| 2026-04-25 13:19 | 12.74254 | 121.56823 | 24405 ft | 414 kts | 147° |
| 2026-04-25 13:20 | 12.70280 | 121.59558 | 23585 ft | 408 kts | 147° |
| 2026-04-25 13:20 | 12.67937 | 121.61172 | 23034 ft | 404 kts | 147° |
| 2026-04-25 13:20 | 12.65610 | 121.62774 | 22489 ft | 401 kts | 147° |
| 2026-04-25 13:20 | 12.63306 | 121.64362 | 21954 ft | 398 kts | 147° |
| 2026-04-25 13:21 | 12.61021 | 121.65936 | 21449 ft | 394 kts | 147° |
| 2026-04-25 13:21 | 12.58748 | 121.67500 | 20964 ft | 391 kts | 147° |
| 2026-04-25 13:21 | 12.56500 | 121.69047 | 20491 ft | 388 kts | 147° |
| 2026-04-25 13:21 | 12.54269 | 121.70584 | 20031 ft | 386 kts | 146° |
| 2026-04-25 13:22 | 12.52046 | 121.72116 | 19846 ft | 385 kts | 146° |
| 2026-04-25 13:22 | 12.49853 | 121.73627 | 19851 ft | 385 kts | 146° |
| 2026-04-25 13:22 | 12.47627 | 121.75161 | 19856 ft | 386 kts | 146° |
| 2026-04-25 13:23 | 12.43896 | 121.77729 | 19854 ft | 386 kts | 146° |
| 2026-04-25 13:23 | 12.41671 | 121.79261 | 19819 ft | 386 kts | 146° |
| 2026-04-25 13:23 | 12.39475 | 121.80769 | 19591 ft | 385 kts | 146° |
| 2026-04-25 13:23 | 12.37257 | 121.82289 | 19362 ft | 383 kts | 146° |
| 2026-04-25 13:24 | 12.35079 | 121.83852 | 19135 ft | 382 kts | 143° |
| 2026-04-25 13:24 | 12.30735 | 121.87347 | 18519 ft | 376 kts | 140° |
| 2026-04-25 13:24 | 12.28743 | 121.89018 | 17998 ft | 375 kts | 140° |
| 2026-04-25 13:25 | 12.26724 | 121.90708 | 17471 ft | 374 kts | 140° |
| 2026-04-25 13:25 | 12.24706 | 121.92378 | 16970 ft | 372 kts | 140° |
| 2026-04-25 13:25 | 12.22687 | 121.94029 | 16465 ft | 371 kts | 141° |
| 2026-04-25 13:25 | 12.20666 | 121.95670 | 15973 ft | 370 kts | 141° |
| 2026-04-25 13:26 | 12.18651 | 121.97297 | 15587 ft | 366 kts | 141° |
| 2026-04-25 13:26 | 12.16689 | 121.98883 | 15468 ft | 354 kts | 141° |
| 2026-04-25 13:26 | 12.14792 | 122.00418 | 15352 ft | 342 kts | 141° |
| 2026-04-25 13:26 | 12.12971 | 122.01888 | 15222 ft | 323 kts | 141° |
| 2026-04-25 13:27 | 12.11262 | 122.03267 | 15099 ft | 304 kts | 141° |
| 2026-04-25 13:27 | 12.10707 | 122.03716 | 15016 ft | 300 kts | 141° |
| 2026-04-25 13:27 | 12.08706 | 122.05589 | 14468 ft | 292 kts | 130° |
| 2026-04-25 13:28 | 12.06384 | 122.09553 | 13366 ft | 287 kts | 117° |
| 2026-04-25 13:28 | 12.05788 | 122.10755 | 13027 ft | 285 kts | 117° |
| 2026-04-25 13:28 | 12.04592 | 122.13152 | 12367 ft | 281 kts | 117° |
| 2026-04-25 13:28 | 12.03719 | 122.14897 | 11868 ft | 278 kts | 117° |
| 2026-04-25 13:29 | 12.02844 | 122.16643 | 11385 ft | 275 kts | 116° |
| 2026-04-25 13:29 | 12.01979 | 122.18374 | 10885 ft | 272 kts | 116° |
| 2026-04-25 13:29 | 12.01110 | 122.20111 | 10391 ft | 270 kts | 116° |
| 2026-04-25 13:30 | 11.99423 | 122.23494 | 10057 ft | 270 kts | 116° |
| 2026-04-25 13:30 | 11.98849 | 122.24647 | 9962 ft | 268 kts | 116° |
| 2026-04-25 13:30 | 11.97759 | 122.26835 | 9798 ft | 252 kts | 116° |
| 2026-04-25 13:31 | 11.96247 | 122.29863 | 9534 ft | 225 kts | 116° |
| 2026-04-25 13:31 | 11.95557 | 122.31248 | 9395 ft | 212 kts | 116° |
| 2026-04-25 13:31 | 11.94894 | 122.32573 | 9113 ft | 207 kts | 116° |
| 2026-04-25 13:31 | 11.94242 | 122.33879 | 8780 ft | 205 kts | 115° |
| 2026-04-25 13:32 | 11.93596 | 122.35169 | 8446 ft | 204 kts | 116° |
| 2026-04-25 13:32 | 11.92954 | 122.36452 | 8131 ft | 202 kts | 115° |
| 2026-04-25 13:32 | 11.92314 | 122.37734 | 7693 ft | 206 kts | 115° |
| 2026-04-25 13:32 | 11.91649 | 122.39064 | 7175 ft | 214 kts | 115° |
| 2026-04-25 13:33 | 11.90962 | 122.40435 | 6657 ft | 220 kts | 115° |
| 2026-04-25 13:33 | 11.90275 | 122.41837 | 6209 ft | 220 kts | 111° |
| 2026-04-25 13:33 | 11.90085 | 122.43347 | 5774 ft | 217 kts | 78° |
| 2026-04-25 13:33 | 11.90433 | 122.44297 | 5485 ft | 216 kts | 63° |
| 2026-04-25 13:34 | 11.91518 | 122.46055 | 4934 ft | 222 kts | 58° |
| 2026-04-25 13:34 | 11.92376 | 122.47336 | 4803 ft | 214 kts | 57° |
| 2026-04-25 13:34 | 11.93207 | 122.48568 | 4680 ft | 207 kts | 57° |
| 2026-04-25 13:34 | 11.94001 | 122.49740 | 4554 ft | 200 kts | 57° |
| 2026-04-25 13:35 | 11.94781 | 122.50887 | 4431 ft | 194 kts | 57° |
| 2026-04-25 13:35 | 11.95539 | 122.52002 | 4313 ft | 189 kts | 57° |
| 2026-04-25 13:35 | 11.96274 | 122.53088 | 4168 ft | 184 kts | 57° |
| 2026-04-25 13:35 | 11.96998 | 122.54157 | 3990 ft | 183 kts | 57° |
| 2026-04-25 13:36 | 11.97723 | 122.55224 | 3783 ft | 183 kts | 57° |
| 2026-04-25 13:36 | 11.98445 | 122.56291 | 3589 ft | 182 kts | 57° |
| 2026-04-25 13:36 | 11.99157 | 122.57354 | 3410 ft | 181 kts | 58° |
| 2026-04-25 13:36 | 11.99576 | 122.58532 | 3201 ft | 178 kts | 92° |
| 2026-04-25 13:37 | 11.99159 | 122.59710 | 2975 ft | 181 kts | 125° |
| 2026-04-25 13:37 | 11.98140 | 122.60479 | 2752 ft | 189 kts | 158° |
| 2026-04-25 13:37 | 11.96813 | 122.60488 | 2534 ft | 198 kts | 197° |
| 2026-04-25 13:37 | 11.95600 | 122.59810 | 2437 ft | 200 kts | 206° |
| 2026-04-25 13:38 | 11.94390 | 122.59147 | 2415 ft | 200 kts | 204° |
| 2026-04-25 13:38 | 11.93140 | 122.58494 | 2415 ft | 203 kts | 204° |
| 2026-04-25 13:38 | 11.91881 | 122.57842 | 2409 ft | 203 kts | 204° |
| 2026-04-25 13:38 | 11.90625 | 122.57189 | 2414 ft | 202 kts | 204° |
| 2026-04-25 13:39 | 11.89374 | 122.56536 | 2416 ft | 202 kts | 204° |
| 2026-04-25 13:39 | 11.88124 | 122.55880 | 2412 ft | 203 kts | 204° |
| 2026-04-25 13:39 | 11.86866 | 122.55217 | 2416 ft | 206 kts | 204° |
| 2026-04-25 13:39 | 11.85579 | 122.54538 | 2409 ft | 209 kts | 204° |
| 2026-04-25 13:40 | 11.84287 | 122.53854 | 2415 ft | 210 kts | 204° |
| 2026-04-25 13:40 | 11.82987 | 122.53161 | 2413 ft | 211 kts | 204° |
| 2026-04-25 13:40 | 11.81689 | 122.52467 | 2425 ft | 206 kts | 205° |
| 2026-04-25 13:40 | 11.80493 | 122.51824 | 2413 ft | 184 kts | 206° |
| 2026-04-25 13:41 | 11.79538 | 122.51015 | 2401 ft | 174 kts | 227° |
| 2026-04-25 13:41 | 11.78751 | 122.50093 | 2407 ft | 170 kts | 226° |
| 2026-04-25 13:41 | 11.77976 | 122.49193 | 2410 ft | 169 kts | 226° |
| 2026-04-25 13:41 | 11.77204 | 122.48298 | 2412 ft | 167 kts | 226° |
| 2026-04-25 13:42 | 11.76431 | 122.47403 | 2371 ft | 168 kts | 226° |
| 2026-04-25 13:42 | 11.75675 | 122.46528 | 2126 ft | 162 kts | 226° |
| 2026-04-25 13:42 | 11.74940 | 122.45677 | 1898 ft | 158 kts | 226° |
| 2026-04-25 13:42 | 11.74215 | 122.44836 | 1680 ft | 157 kts | 227° |
| 2026-04-25 13:43 | 11.73497 | 122.44001 | 1470 ft | 157 kts | 227° |
| 2026-04-25 13:43 | 11.72781 | 122.43169 | 1275 ft | 155 kts | 227° |
| 2026-04-25 13:43 | 11.72070 | 122.42344 | 1066 ft | 154 kts | 227° |
| 2026-04-25 13:43 | 11.71381 | 122.41545 | 875 ft | 151 kts | 229° |
| 2026-04-25 13:44 | 11.70691 | 122.40743 | 674 ft | 149 kts | 226° |
| 2026-04-25 13:44 | 11.70014 | 122.39954 | 476 ft | 146 kts | 228° |
| 2026-04-25 13:44 | 11.69346 | 122.39176 | 258 ft | 143 kts | 227° |
| 2026-04-25 13:44 | 11.68689 | 122.38414 | 51 ft | 143 kts | 228° |
| 2026-04-25 13:45 | 11.68104 | 122.37732 | 19 ft | 100 kts | 229° |
| 2026-04-25 13:45 | 11.67844 | 122.37429 | 20 ft | 23 kts | 228° |
| 2026-04-25 13:45 | 11.67786 | 122.37377 | 19 ft | 8 kts | 216° |
| 2026-04-25 13:45 | 11.67795 | 122.37367 | 21 ft | 1 kts | 9° |
| 2026-04-25 13:46 | 11.67832 | 122.37411 | 20 ft | 18 kts | 49° |
| 2026-04-25 13:46 | 11.67975 | 122.37574 | 19 ft | 42 kts | 49° |
| 2026-04-25 13:46 | 11.68196 | 122.37831 | 18 ft | 38 kts | 49° |
| 2026-04-25 13:46 | 11.68322 | 122.37982 | 20 ft | 19 kts | 49° |
| 2026-04-25 13:47 | 11.68414 | 122.38087 | 24 ft | 20 kts | 47° |
| 2026-04-25 13:47 | 11.68459 | 122.38127 | 21 ft | 7 kts | 17° |
| 2026-04-25 13:47 | 11.68496 | 122.38114 | 19 ft | 5 kts | 338° |
| 2026-04-25 13:47 | 11.68525 | 122.38109 | 20 ft | 3 kts | 355° |
| 2026-04-25 13:48 | 11.68544 | 122.38107 | 20 ft | 2 kts | 351° |
| 2026-04-25 13:48 | 11.68545 | 122.38106 | 20 ft | 0 kts | 351° |